Time;durP1;ratioP1;P1;durP2;ratioP2;P2;SDS_P1;SDS_P2;PMS_P1;PMS_P2;Temp;Humidity;BMP_temperature;BMP_pressure;BME280_temperature;BME280_humidity;BME280_pressure;Samples;Min_cycle;Max_cycle;Signal;HPM_P1;HPM_P2
2021/04/23 04:48:25;;;;;;;20.27;15.83;;;;;;;9.17;88.76;100211.62;1732209;81;21142;-37
2021/04/23 04:50:56;;;;;;;24.05;16.17;;;;;;;9.17;88.32;100215.54;1756373;81;21723;-35
2021/04/23 04:53:24;;;;;;;30.02;16.37;;;;;;;9.17;88.50;100225.55;1760856;80;21533;-43
2021/04/23 04:55:54;;;;;;;24.20;16.48;;;;;;;9.18;87.96;100225.98;1764589;80;21333;-38
2021/04/23 04:58:25;;;;;;;28.07;16.27;;;;;;;9.20;87.65;100235.98;1761667;81;21139;-40
2021/04/23 05:00:52;;;;;;;22.05;15.68;;;;;;;9.27;87.88;100239.05;1734159;82;21587;-36
2021/04/23 05:03:20;;;;;;;25.27;15.75;;;;;;;9.36;87.85;100244.77;1677012;84;21201;-36
2021/04/23 05:05:49;;;;;;;19.45;15.03;;;;;;;9.46;87.62;100250.91;1713805;82;21456;-41
2021/04/23 05:08:17;;;;;;;24.02;14.58;;;;;;;9.55;86.62;100254.84;1720246;82;21175;-41
2021/04/23 05:10:45;;;;;;;23.73;13.60;;;;;;;9.62;86.60;100247.45;1724411;82;21217;-36
2021/04/23 05:13:13;;;;;;;21.07;12.98;;;;;;;9.72;86.01;100252.28;1721717;82;21189;-37
2021/04/23 05:15:41;;;;;;;25.05;12.13;;;;;;;9.82;84.86;100241.86;1755795;80;21171;-36
2021/04/23 05:18:09;;;;;;;18.55;13.05;;;;;;;9.89;84.54;100241.44;1754721;80;21616;-42
2021/04/23 05:20:38;;;;;;;20.35;11.63;;;;;;;9.97;84.43;100244.05;1756386;80;21212;-42
2021/04/23 05:23:08;;;;;;;17.82;13.32;;;;;;;10.00;83.86;100232.31;1730751;81;21198;-42
2021/04/23 05:25:36;;;;;;;19.27;12.13;;;;;;;10.03;83.10;100230.99;1754639;80;21281;-42
2021/04/23 05:28:04;;;;;;;19.48;12.03;;;;;;;10.01;83.20;100223.59;1753333;80;21139;-36
2021/04/23 05:30:34;;;;;;;16.75;11.97;;;;;;;9.96;82.71;100220.97;1755865;80;22024;-42
2021/04/23 05:33:02;;;;;;;17.45;11.80;;;;;;;9.89;82.73;100204.85;1758057;80;21222;-41
2021/04/23 05:35:32;;;;;;;16.12;10.45;;;;;;;9.81;82.97;100206.16;1756003;80;21163;-42
2021/04/23 05:37:59;;;;;;;20.92;13.32;;;;;;;9.76;83.32;100217.47;1757763;81;22177;-41
2021/04/23 05:40:39;;;;;;;16.25;11.08;;;;;;;9.73;83.63;100224.84;1743486;80;21529;-38
2021/04/23 05:43:07;;;;;;;19.32;11.33;;;;;;;9.72;83.71;100215.70;1758300;80;21119;-37
2021/04/23 05:45:37;;;;;;;20.55;12.03;;;;;;;9.70;83.81;100199.16;1756576;79;21306;-36
2021/04/23 05:48:07;;;;;;;27.00;16.12;;;;;;;9.70;84.49;100196.12;1761839;80;21175;-37
2021/04/23 05:50:36;;;;;;;27.45;17.12;;;;;;;9.69;85.96;100175.22;1753470;80;21164;-36
2021/04/23 05:53:04;;;;;;;22.75;14.05;;;;;;;9.63;86.50;100169.55;1745758;81;21155;-36
2021/04/23 05:55:32;;;;;;;21.82;13.45;;;;;;;9.59;86.74;100212.20;1750620;81;21694;-42
2021/04/23 05:58:02;;;;;;;26.12;13.88;;;;;;;9.55;86.87;100217.83;1755396;80;21584;-37
2021/04/23 06:00:31;;;;;;;21.12;13.98;;;;;;;9.51;86.74;100217.84;1750625;81;21189;-36
2021/04/23 06:02:59;;;;;;;28.42;16.00;;;;;;;9.49;86.98;100216.52;1755217;81;21443;-36
2021/04/23 06:05:28;;;;;;;23.92;14.18;;;;;;;9.49;87.24;100197.36;1757364;81;21420;-41
2021/04/23 06:07:57;;;;;;;23.30;14.20;;;;;;;9.52;87.72;100198.25;1752848;81;21627;-43
2021/04/23 06:10:26;;;;;;;22.25;15.38;;;;;;;9.58;88.24;100202.19;1755482;81;21171;-37
2021/04/23 06:12:54;;;;;;;25.17;13.80;;;;;;;9.62;88.27;100199.13;1744536;81;21159;-41
2021/04/23 06:15:24;;;;;;;26.62;14.18;;;;;;;9.66;88.30;100197.41;1753768;81;21334;-41
2021/04/23 06:17:54;;;;;;;24.67;15.10;;;;;;;9.70;88.21;100194.81;1747698;81;21163;-36
2021/04/23 06:20:29;;;;;;;22.45;15.48;;;;;;;9.75;87.99;100197.44;1748479;81;21252;-37
2021/04/23 06:22:59;;;;;;;24.52;14.50;;;;;;;9.83;88.28;100199.18;1753211;81;21163;-41
2021/04/23 06:25:27;;;;;;;23.07;12.63;;;;;;;9.98;88.51;100197.47;1751786;81;21274;-41
2021/04/23 06:27:55;;;;;;;22.73;12.03;;;;;;;10.12;88.62;100198.34;1749275;81;21418;-36
2021/04/23 06:30:33;;;;;;;16.23;11.73;;;;;;;10.34;88.82;100188.78;1748348;81;21205;-35
2021/04/23 06:33:16;;;;;;;24.40;14.00;;;;;;;10.58;86.34;100193.11;1744481;81;21163;-36
2021/04/23 06:36:03;;;;;;;23.70;14.30;;;;;;;10.79;86.05;100194.38;1749163;81;21197;-39
2021/04/23 06:38:31;;;;;;;19.60;14.00;;;;;;;11.04;83.96;100195.61;1752848;81;21695;-41
2021/04/23 06:41:38;;;;;;;15.43;11.30;;;;;;;11.24;83.40;100189.84;1754717;81;21197;-42
2021/04/23 06:44:16;;;;;;;20.35;12.58;;;;;;;11.39;81.06;100195.47;1746016;81;21140;-38
2021/04/23 06:46:46;;;;;;;14.75;10.32;;;;;;;11.49;81.53;100189.31;1749777;81;21789;-42
2021/04/23 06:49:13;;;;;;;21.82;12.37;;;;;;;11.59;80.61;100191.41;1754567;80;21302;-43
2021/04/23 06:51:41;;;;;;;18.23;11.75;;;;;;;11.70;80.94;100207.50;1756857;81;21588;-36
2021/04/23 06:54:09;;;;;;;12.65;10.10;;;;;;;11.75;78.62;100194.38;1756875;80;21151;-41
2021/04/23 06:56:37;;;;;;;18.25;10.93;;;;;;;11.76;78.36;100190.88;1757107;80;21194;-36
2021/04/23 06:59:05;;;;;;;16.07;11.50;;;;;;;11.76;77.52;100191.31;1756687;80;21212;-36
2021/04/23 07:01:33;;;;;;;14.95;10.98;;;;;;;11.74;77.12;100180.85;1752919;81;21156;-36
2021/04/23 07:04:00;;;;;;;16.93;10.75;;;;;;;11.81;76.40;100181.27;1749098;80;21171;-37
2021/04/23 07:06:28;;;;;;;13.15;10.03;;;;;;;11.90;77.04;100182.52;1757145;80;21177;-35
2021/04/23 07:08:56;;;;;;;16.48;10.98;;;;;;;11.97;76.66;100192.08;1759124;80;21147;-36
2021/04/23 07:11:24;;;;;;;17.00;10.93;;;;;;;12.01;76.25;100186.83;1755279;80;21659;-36
2021/04/23 07:13:53;;;;;;;14.23;10.85;;;;;;;12.01;75.98;100182.45;1753724;80;21548;-41
2021/04/23 07:16:29;;;;;;;14.30;11.33;;;;;;;12.05;76.20;100187.21;1753305;80;21155;-36
2021/04/23 07:23:57;;;;;;;16.57;12.13;;;;;;;12.28;76.02;100190.95;1753280;81;21238;-36
2021/04/23 07:36:32;;;;;;;15.58;10.70;;;;;;;12.57;72.07;100200.74;1752644;80;21642;-42
2021/04/23 07:39:41;;;;;;;13.98;11.10;;;;;;;12.72;71.70;100190.55;1752304;80;21597;-41
2021/04/23 07:43:00;;;;;;;12.25;9.95;;;;;;;12.88;70.60;100193.45;1754054;80;21094;-36
2021/04/23 07:45:28;;;;;;;15.28;11.22;;;;;;;13.09;69.66;100183.56;1754299;80;21201;-42
2021/04/23 07:47:57;;;;;;;16.32;11.05;;;;;;;13.25;70.32;100182.53;1754473;80;21187;-41
2021/04/23 07:50:26;;;;;;;12.33;10.43;;;;;;;13.51;69.45;100184.38;1756044;80;22417;-42
2021/04/23 07:52:55;;;;;;;12.58;11.28;;;;;;;13.71;68.50;100185.40;1756105;80;21170;-44
2021/04/23 07:55:27;;;;;;;18.60;11.30;;;;;;;13.84;67.89;100184.31;1758521;80;21171;-42
2021/04/23 07:57:58;;;;;;;15.53;10.40;;;;;;;13.86;65.74;100184.31;1762560;80;21509;-37
2021/04/23 08:00:27;;;;;;;12.50;9.83;;;;;;;13.76;65.47;100182.70;1758015;81;21998;-38
2021/04/23 08:02:58;;;;;;;15.98;10.88;;;;;;;13.69;65.31;100188.51;1751612;79;21514;-36
2021/04/23 08:05:30;;;;;;;14.05;11.22;;;;;;;13.66;66.49;100185.91;1738296;81;21171;-36
2021/04/23 08:08:01;;;;;;;15.80;10.72;;;;;;;13.66;65.70;100190.30;1710131;82;21327;-37
2021/04/23 08:10:30;;;;;;;13.05;10.53;;;;;;;13.64;65.95;100184.20;1702845;82;21789;-36
2021/04/23 08:13:06;;;;;;;18.60;10.40;;;;;;;13.70;67.28;100184.98;1701754;82;21188;-41
2021/04/23 08:16:13;;;;;;;21.42;10.95;;;;;;;13.82;65.66;100184.80;1733146;81;21853;-36
2021/04/23 08:19:20;;;;;;;16.27;11.03;;;;;;;13.94;65.88;100188.14;1699815;82;21153;-37
2021/04/23 08:22:18;;;;;;;13.05;9.78;;;;;;;14.11;66.59;100188.29;1721278;81;21514;-39
2021/04/23 08:39:17;;;;;;;21.42;11.18;;;;;;;13.53;67.42;100193.10;1699708;82;21469;-37
2021/04/23 08:46:15;;;;;;;16.73;12.05;;;;;;;13.53;70.06;100168.13;1719564;81;21323;-37
2021/04/23 08:48:50;;;;;;;17.12;12.45;;;;;;;13.63;69.90;100168.88;1722698;81;21393;-37
2021/04/23 08:51:21;;;;;;;16.60;11.90;;;;;;;13.79;69.91;100174.76;1718703;81;21158;-37
2021/04/23 08:53:52;;;;;;;13.28;10.08;;;;;;;13.96;68.75;100173.19;1720379;81;21141;-42
2021/04/23 08:56:21;;;;;;;17.80;10.45;;;;;;;14.16;68.45;100159.28;1722904;81;21285;-38
2021/04/23 08:58:49;;;;;;;17.57;9.75;;;;;;;14.24;66.22;100167.91;1723977;81;21566;-43
2021/04/23 09:01:17;;;;;;;14.15;11.43;;;;;;;14.28;65.75;100166.96;1721262;81;21186;-44
2021/04/23 09:03:45;;;;;;;12.55;10.23;;;;;;;14.34;65.71;100164.67;1716262;81;21888;-43
2021/04/23 09:06:20;;;;;;;14.87;9.83;;;;;;;14.50;65.39;100164.00;1704902;82;21186;-42
2021/04/23 09:08:58;;;;;;;14.05;9.88;;;;;;;14.69;64.25;100161.44;1700786;82;21198;-38
2021/04/23 09:11:45;;;;;;;12.80;10.18;;;;;;;14.82;63.89;100146.26;1703114;82;21800;-37
2021/04/23 09:19:09;;;;;;;19.67;11.25;;;;;;;15.40;63.47;100129.23;1708392;82;22154;-37
2021/04/23 09:26:57;;;;;;;12.58;9.38;;;;;;;16.12;61.54;100126.21;1676328;83;20931;-43
2021/04/23 09:35:34;;;;;;;20.97;10.53;;;;;;;16.27;60.06;100120.55;1705593;82;21144;-43
2021/04/23 09:39:17;;;;;;;15.58;9.48;;;;;;;16.50;59.79;100115.53;1709855;82;21167;-42
2021/04/23 09:41:59;;;;;;;11.18;9.00;;;;;;;16.56;57.66;100126.38;1707442;82;21178;-38
2021/04/23 09:44:43;;;;;;;12.75;9.83;;;;;;;16.43;58.67;100124.53;1658097;85;21186;-37
2021/04/23 09:47:18;;;;;;;15.03;10.10;;;;;;;16.42;58.32;100124.58;1707266;82;21572;-36
2021/04/23 09:49:55;;;;;;;15.15;9.40;;;;;;;16.41;58.19;100110.52;1715396;82;21190;-37
2021/04/23 09:52:25;;;;;;;11.08;8.60;;;;;;;16.52;58.19;100111.52;1707759;82;21200;-40
2021/04/23 09:54:55;;;;;;;13.38;8.55;;;;;;;16.57;57.17;100112.27;1707095;82;21182;-37
2021/04/23 09:57:33;;;;;;;9.35;7.75;;;;;;;16.46;57.36;100099.34;1707689;82;21186;-36
2021/04/23 10:00:04;;;;;;;15.40;10.65;;;;;;;16.37;57.79;100093.02;1707593;82;21634;-36
2021/04/23 10:02:31;;;;;;;13.75;9.13;;;;;;;16.23;59.27;100098.67;1705051;82;21595;-41
2021/04/23 10:05:00;;;;;;;13.05;9.93;;;;;;;16.08;59.18;100096.88;1707041;82;21205;-42
2021/04/23 10:07:32;;;;;;;13.45;9.48;;;;;;;15.97;58.75;100086.59;1705251;82;21166;-43
2021/04/23 10:10:09;;;;;;;19.73;11.88;;;;;;;15.84;59.65;100089.13;1680261;83;21187;-43
2021/04/23 10:12:48;;;;;;;15.90;10.08;;;;;;;15.73;59.44;100077.52;1699230;82;21209;-36
2021/04/23 10:15:33;;;;;;;16.67;10.38;;;;;;;15.63;59.42;100077.31;1697132;82;21389;-36
2021/04/23 10:18:17;;;;;;;17.12;11.60;;;;;;;15.64;61.07;100068.05;1701432;82;21174;-36
2021/04/23 10:20:47;;;;;;;13.03;9.93;;;;;;;15.78;61.29;100060.27;1702179;82;21644;-43
2021/04/23 10:23:17;;;;;;;16.02;10.50;;;;;;;16.07;60.19;100060.38;1707145;82;21722;-37
2021/04/23 10:25:45;;;;;;;10.80;8.65;;;;;;;16.26;59.31;100059.89;1703716;82;21538;-37
2021/04/23 10:28:19;;;;;;;10.55;8.78;;;;;;;16.36;58.28;100054.33;1701171;82;21319;-44
2021/04/23 10:30:50;;;;;;;12.55;8.88;;;;;;;16.34;58.42;100046.02;1700324;82;21650;-43
2021/04/23 10:33:23;;;;;;;13.85;9.43;;;;;;;16.29;58.57;100046.14;1703596;82;21194;-43
2021/04/23 10:36:29;;;;;;;9.78;8.43;;;;;;;16.28;58.69;100043.09;1713020;82;21167;-45
2021/04/23 10:39:11;;;;;;;19.23;8.33;;;;;;;16.30;58.32;100030.73;1700727;82;21160;-43
2021/04/23 10:41:44;;;;;;;12.45;8.58;;;;;;;16.33;57.76;100026.67;1697048;82;21124;-44
2021/04/23 10:47:41;;;;;;;10.48;8.30;;;;;;;16.61;57.59;100018.84;1697111;82;21622;-44
2021/04/23 10:51:02;;;;;;;13.68;8.80;;;;;;;17.18;57.06;100013.20;1702080;82;21295;-43
2021/04/23 10:53:47;;;;;;;10.10;7.95;;;;;;;17.79;54.45;100012.53;1709400;82;21144;-43
2021/04/23 10:56:24;;;;;;;8.53;6.47;;;;;;;18.08;53.24;100004.91;1704759;82;21759;-39
2021/04/23 10:58:52;;;;;;;9.35;7.10;;;;;;;18.34;49.46;100004.85;1703943;82;21308;-38
2021/04/23 11:01:24;;;;;;;10.50;7.75;;;;;;;18.14;49.41;100006.02;1702451;82;21187;-37
2021/04/23 11:04:17;;;;;;;13.88;8.35;;;;;;;17.94;51.83;100005.41;1706686;82;21222;-40
2021/04/23 11:06:54;;;;;;;10.00;8.23;;;;;;;17.51;52.18;100002.87;1708053;82;21320;-40
2021/04/23 11:09:23;;;;;;;12.78;7.97;;;;;;;16.83;54.02;99999.30;1704671;82;21570;-41
2021/04/23 11:12:12;;;;;;;12.68;8.38;;;;;;;16.26;56.00;100004.00;1707498;82;21143;-41
2021/04/23 11:14:42;;;;;;;15.40;9.95;;;;;;;15.89;56.98;100017.34;1705750;82;21850;-36
2021/04/23 11:17:22;;;;;;;12.30;10.80;;;;;;;15.56;58.93;100029.56;1702668;82;21166;-35
2021/04/23 11:19:52;;;;;;;17.30;12.23;;;;;;;15.18;62.75;100040.09;1723120;81;21227;-36
2021/04/23 11:22:27;;;;;;;14.78;11.40;;;;;;;14.67;65.67;100039.91;1724342;81;21561;-36
2021/04/23 11:25:16;;;;;;;18.00;12.75;;;;;;;14.17;68.59;100043.07;1726099;81;21211;-37
2021/04/23 11:28:07;;;;;;;13.18;10.32;;;;;;;13.70;69.30;100039.08;1720774;81;21294;-36
2021/04/23 11:31:00;;;;;;;13.70;9.00;;;;;;;13.28;71.29;100044.13;1685689;83;21723;-36
2021/04/23 11:33:54;;;;;;;13.00;7.92;;;;;;;12.91;71.78;100034.98;1698814;82;21217;-37
2021/04/23 11:36:33;;;;;;;10.72;6.33;;;;;;;12.62;73.43;100045.41;1704963;82;21138;-37
2021/04/23 11:39:05;;;;;;;6.20;4.97;;;;;;;12.33;72.49;100048.38;1706557;82;21162;-42
2021/04/23 11:41:34;;;;;;;7.40;5.17;;;;;;;12.05;73.06;100043.86;1721500;81;21214;-42
2021/04/23 11:44:03;;;;;;;7.87;4.90;;;;;;;11.81;73.31;100048.00;1729149;81;21975;-43
2021/04/23 11:46:53;;;;;;;10.13;5.28;;;;;;;11.67;72.86;100051.61;1723214;81;21165;-43
2021/04/23 11:49:21;;;;;;;8.85;5.70;;;;;;;11.57;72.96;100043.84;1722746;81;21169;-41
2021/04/23 11:51:51;;;;;;;8.93;5.33;;;;;;;11.50;74.37;100040.41;1719797;81;21209;-41
2021/04/23 11:54:38;;;;;;;6.85;5.70;;;;;;;11.46;75.48;100027.75;1722012;81;22095;-36
2021/04/23 11:57:07;;;;;;;6.47;5.83;;;;;;;11.43;76.55;100025.62;1722115;81;21556;-41
